Aeroporto :
LOGIN :

Iscrizione | Disclaimer

   EN    FR    IT 

 










Sommario :    VFR   VFR Marginale   IFR   IFR Intensivo   IFR Molto Intensivo
Visibilità : 
Base nubi : 
>= 8 km
>= 3000ft
5 / 8 km
1000 / 3000 ft
1500m / 5 km
500 / 1000 ft
800 / 1500m
200 / 500 ft
< 800m
< 200 ft
Simboli :   Temporali  Nebbia  Neve Forte  Precipitazioni Forti  Vento > 20 kt
SIGMETs :   Varie  Temporali  Ghiacco  Turbolenza  Onda orograficha  Ceneri Vulcaniche






- Altitudine del aeroporto : 302 ft


LFPM - Melun Villaroche

ULTIMO METAR :
  • 151430Z AUTO VRB03KT CAVOK 27/18 Q1007

METARs OBSOLETI :
  • 151400Z AUTO 20004KT 160V240 CAVOK 26/18 Q1007
  • 151330Z AUTO 21005KT 9999 //////CB 25/18 Q1008
  • 151300Z AUTO 14007KT 110V180 8000 ///CB 26/18 Q1007
  • 151230Z AUTO 14009KT 5000 HZ ///TCU 26/17 Q1007
  • 151200Z AUTO 14006KT 110V180 9999 VCTS ///CB 27/16 Q1007
  • 151130Z AUTO 13007KT 100V190 9999 //////CB 26/16 Q1008
  • 151100Z AUTO 11012KT 8000 NSC 26/15 Q1007
  • 151030Z AUTO 12010KT 7000 NSC 25/15 Q1008
  • 151000Z AUTO 13010KT 5000 HZ NSC 25/14 Q1008

Previsioni scadute.
ATIS : +33 1 64 14 28 44



MetMap, La meteo Aeronautica in un colpo d'occhio ! - Copyright ORBIFLY Dicembre 2007 - Disclaimer

ORBIFLY MET'MAP TEAM :

Programmazione e sviluppo : Alexandra Zaïnal
Concezione : Baudouin d'Aumeries
Supporto tecnico e logistico : Manuel Goepfert
Aiuto : Marc-Olivier Méhu
Aiuto per la traduzione : Arnaldo La Scala




FONTI E CREDITI :

   NOAA